Terminal Aerodrome Forecast
Issued by NWS

Home | Current Version | Previous Version | Graphics & Text | Print | Product List | Glossary Off
Versions: 1 2 3 4 5 6 7 8 9 10 11 12 13

000
FTUS43 KICT 240522
TAFRSL
TAF
KRSL 240522Z 2406/2506 15014G20KT P6SM SCT080 BKN250
     FM241500 17020G29KT P6SM VCTS BKN050CB OVC200
     FM250000 16011KT P6SM VCTS OVC035CB=

USA.gov is the U.S. government's official web portal to all federal, state and local government web resources and services.